Time;durP1;ratioP1;P1;durP2;ratioP2;P2;SDS_P1;SDS_P2;PMS_P1;PMS_P2;Temp;Humidity;BMP_temperature;BMP_pressure;BME280_temperature;BME280_humidity;BME280_pressure;Samples;Min_cycle;Max_cycle;Signal;HPM_P1;HPM_P2
2021/12/10 00:02:20;;;;;;;109.95;27.33;;;-1.00;99.90;;;-2.95;100.00;99559.31;4969218;28;20046;-75
2021/12/10 00:04:47;;;;;;;84.43;24.35;;;-0.90;99.90;;;-2.84;100.00;99559.19;4956097;28;20023;-76
2021/12/10 00:07:22;;;;;;;92.80;25.33;;;-1.00;99.90;;;-2.83;100.00;99560.06;4943572;28;20066;-77
2021/12/10 00:10:02;;;;;;;90.68;24.40;;;-1.00;99.90;;;-2.88;100.00;99552.38;4919341;28;20495;-76
2021/12/10 00:12:43;;;;;;;114.60;25.20;;;-1.00;99.90;;;-2.91;100.00;99542.97;4916681;28;20509;-77
2021/12/10 00:15:10;;;;;;;111.65;26.92;;;-1.00;99.90;;;-2.95;100.00;99530.13;4917390;28;20401;-76
2021/12/10 00:17:36;;;;;;;110.25;26.60;;;-0.90;99.90;;;-2.89;100.00;99535.22;4904849;28;20034;-76
2021/12/10 00:20:08;;;;;;;113.20;27.23;;;-0.90;99.90;;;-2.89;100.00;99545.53;4912477;28;20027;-76
2021/12/10 00:22:48;;;;;;;113.10;26.70;;;-1.00;99.90;;;-2.96;100.00;99528.41;4904203;28;20540;-77
2021/12/10 00:25:19;;;;;;;105.25;24.80;;;-0.90;99.90;;;-2.86;100.00;99531.75;4946616;28;20057;-77
2021/12/10 00:27:52;;;;;;;96.95;25.80;;;-1.00;99.90;;;-2.91;100.00;99542.97;4990868;28;20034;-77
2021/12/10 00:30:28;;;;;;;88.97;24.75;;;-1.00;99.90;;;-2.94;100.00;99548.16;4946782;28;20050;-75
2021/12/10 00:33:20;;;;;;;94.35;24.17;;;-1.00;99.90;;;-2.94;100.00;99529.25;4987105;28;20030;-75
2021/12/10 00:35:48;;;;;;;96.75;25.48;;;-1.00;99.90;;;-2.95;100.00;99535.28;4953296;28;20058;-75
2021/12/10 00:38:17;;;;;;;110.40;26.13;;;-1.00;99.90;;;-2.85;100.00;99523.16;4887714;28;20019;-76
2021/12/10 00:40:43;;;;;;;111.95;26.33;;;-1.00;99.90;;;-2.81;100.00;99524.81;4924889;28;20061;-75
2021/12/10 00:43:09;;;;;;;113.57;27.38;;;-0.90;99.90;;;-2.74;100.00;99523.91;4957806;28;20022;-76
2021/12/10 00:45:36;;;;;;;107.90;25.63;;;-0.90;99.90;;;-2.81;100.00;99523.09;4984484;28;20092;-76
2021/12/10 00:48:03;;;;;;;115.97;27.30;;;-0.90;99.90;;;-2.81;100.00;99507.63;4965148;28;20035;-76
2021/12/10 00:50:39;;;;;;;106.03;26.10;;;-0.90;99.90;;;-2.89;100.00;99501.75;4939628;28;20081;-76
2021/12/10 00:53:06;;;;;;;99.72;23.00;;;-1.00;99.90;;;-2.81;100.00;99496.47;4954275;28;20041;-76
2021/12/10 00:55:36;;;;;;;98.07;26.05;;;-0.90;99.90;;;-2.83;100.00;99499.09;4945025;28;20753;-81
2021/12/10 00:58:04;;;;;;;117.45;29.17;;;-0.90;99.90;;;-2.92;100.00;99500.03;4986486;28;20030;-77
2021/12/10 01:00:38;;;;;;;113.22;25.80;;;-1.00;99.90;;;-2.95;100.00;99494.06;4950560;28;20124;-76
2021/12/10 01:03:10;;;;;;;98.32;26.20;;;-1.00;99.90;;;-2.92;100.00;99496.59;4918092;28;20038;-76
2021/12/10 01:05:40;;;;;;;102.85;26.77;;;-1.00;99.90;;;-2.93;100.00;99497.50;4957327;28;20117;-76
2021/12/10 01:08:08;;;;;;;112.85;27.77;;;-1.00;99.90;;;-2.91;100.00;99488.03;4937903;28;20065;-76
2021/12/10 01:10:46;;;;;;;96.45;24.58;;;-1.00;99.90;;;-2.91;100.00;99488.88;4964866;28;20042;-76
2021/12/10 01:13:17;;;;;;;110.70;28.58;;;-1.00;99.90;;;-2.91;100.00;99501.75;4948097;28;20520;-76
2021/12/10 01:24:31;;;;;;;101.78;27.13;;;-0.90;99.90;;;-2.89;100.00;99488.88;4924492;28;20037;-76
2021/12/10 01:27:07;;;;;;;116.57;27.90;;;;;;;-2.91;100.00;99488.88;4925564;28;20041;-76
2021/12/10 01:29:45;;;;;;;109.60;27.23;;;-1.00;99.90;;;-2.88;100.00;99485.41;4949621;28;20037;-76
2021/12/10 01:32:17;;;;;;;112.95;29.08;;;-1.00;99.90;;;-2.86;100.00;99482.81;4956125;28;20053;-76
2021/12/10 01:34:45;;;;;;;95.53;25.50;;;-1.00;99.90;;;-2.86;100.00;99480.25;4952549;28;20057;-76
2021/12/10 01:37:15;;;;;;;109.10;27.83;;;-1.00;99.90;;;-2.87;100.00;99476.81;4927358;28;20029;-76
2021/12/10 01:39:43;;;;;;;123.97;29.13;;;-1.00;99.90;;;-2.91;100.00;99476.00;4926680;28;20409;-76
2021/12/10 01:42:29;;;;;;;108.35;27.65;;;-1.00;99.90;;;-2.98;100.00;99474.38;4954443;28;20425;-76
2021/12/10 01:44:58;;;;;;;;;;;-1.00;99.90;;;-2.95;100.00;99478.63;4966792;28;20557;-76
2021/12/10 01:47:38;;;;;;;113.47;27.33;;;-1.10;99.90;;;-2.96;100.00;99477.78;4962657;28;20012;-77
2021/12/10 01:50:08;;;;;;;109.47;27.90;;;-1.00;99.90;;;-2.96;100.00;99482.94;4938252;28;20084;-76
2021/12/10 01:52:34;;;;;;;120.00;30.30;;;-1.00;99.90;;;-2.88;100.00;99485.41;4946128;28;20034;-77
2021/12/10 01:55:08;;;;;;;114.97;28.45;;;-1.00;99.90;;;-2.97;100.00;99480.38;4936989;28;20034;-80
2021/12/10 01:57:37;;;;;;;104.85;26.38;;;-1.00;99.90;;;-2.85;100.00;99472.50;4948942;28;20030;-77
2021/12/10 02:00:13;;;;;;;120.68;27.73;;;-1.00;99.90;;;-2.82;100.00;99476.75;4919644;28;20042;-76
2021/12/10 02:02:47;;;;;;;122.10;27.42;;;-1.00;99.90;;;-2.92;100.00;99458.81;4924655;28;20030;-76
2021/12/10 02:05:13;;;;;;;125.50;29.45;;;-0.90;99.90;;;-2.91;100.00;99467.41;4925440;28;20021;-77
2021/12/10 02:07:39;;;;;;;129.48;31.75;;;-1.00;99.90;;;-2.98;100.00;99460.63;4941441;28;20061;-76
2021/12/10 02:10:09;;;;;;;122.18;28.55;;;-1.00;99.90;;;-3.02;100.00;99443.50;4954086;28;20103;-76
2021/12/10 02:12:41;;;;;;;117.35;28.42;;;-1.10;99.90;;;-2.99;100.00;99449.47;4928675;28;20839;-76
2021/12/10 02:15:11;;;;;;;133.75;30.45;;;-1.10;99.90;;;-3.03;100.00;99455.53;4960040;28;20046;-76
2021/12/10 02:17:48;;;;;;;124.63;30.15;;;-1.10;99.90;;;-3.01;100.00;99451.19;4881393;28;20484;-76
2021/12/10 02:21:03;;;;;;;115.55;29.20;;;-1.10;99.90;;;-3.00;100.00;99442.63;4954236;28;20046;-77
2021/12/10 02:23:35;;;;;;;131.93;27.25;;;-1.00;99.90;;;-2.98;100.00;99442.59;4935370;28;20521;-77
2021/12/10 02:26:04;;;;;;;114.30;30.30;;;-1.10;99.90;;;-3.03;100.00;99434.91;4954297;28;20453;-77
2021/12/10 02:28:30;;;;;;;140.82;34.42;;;-1.10;99.90;;;-3.08;100.00;99435.84;4925417;28;20398;-76
2021/12/10 02:30:59;;;;;;;124.47;32.45;;;-1.10;99.90;;;-3.03;100.00;99431.50;4953491;28;20048;-76
2021/12/10 02:33:28;;;;;;;133.85;34.05;;;-1.10;99.90;;;-3.03;100.00;99423.78;4941438;28;20092;-77
2021/12/10 02:35:54;;;;;;;130.20;30.30;;;-1.10;99.90;;;-3.05;100.00;99417.78;4956952;28;20061;-76
2021/12/10 02:38:22;;;;;;;117.22;30.48;;;-1.10;99.90;;;-3.12;100.00;99407.56;4922622;28;20423;-76
2021/12/10 02:40:51;;;;;;;117.68;28.80;;;-1.10;99.90;;;-3.04;100.00;99404.06;4957887;28;20104;-76
2021/12/10 02:43:21;;;;;;;129.63;31.30;;;-1.10;99.90;;;-3.07;100.00;99392.03;4896069;28;20022;-77
2021/12/10 02:45:55;;;;;;;110.13;29.67;;;-1.10;99.90;;;-3.03;100.00;99390.28;4973908;28;20117;-77
2021/12/10 02:48:24;;;;;;;118.18;29.52;;;-1.10;99.90;;;-3.06;100.00;99380.88;4902349;28;20038;-76
2021/12/10 02:50:52;;;;;;;124.63;31.67;;;-1.10;99.90;;;-3.12;100.00;99366.34;4956016;28;20037;-76
2021/12/10 02:53:24;;;;;;;119.78;29.98;;;-1.10;99.90;;;-2.99;100.00;99374.78;4956168;28;20030;-76
2021/12/10 02:55:56;;;;;;;130.52;30.15;;;-1.10;99.90;;;-3.13;100.00;99369.81;4945886;28;20034;-77
2021/12/10 02:58:23;;;;;;;117.10;28.05;;;-1.10;99.90;;;-3.02;100.00;99389.41;4965136;28;21056;-76
2021/12/10 03:01:46;;;;;;;130.50;30.70;;;-1.10;99.90;;;-3.07;100.00;99370.59;4909641;28;20038;-76
2021/12/10 03:04:13;;;;;;;132.68;30.40;;;-1.10;99.90;;;-3.00;100.00;99383.38;4913951;28;20041;-76
2021/12/10 03:06:51;;;;;;;113.95;29.77;;;-1.10;99.90;;;-2.96;100.00;99391.91;4935415;28;20030;-77
2021/12/10 03:09:21;;;;;;;127.28;31.10;;;-1.10;99.90;;;-3.04;100.00;99388.59;4864892;28;20680;-77
2021/12/10 03:11:55;;;;;;;122.38;29.35;;;-1.10;99.90;;;-3.03;100.00;99388.56;4935631;28;20062;-76
2021/12/10 03:14:32;;;;;;;127.90;31.92;;;-1.00;99.90;;;-3.02;100.00;99381.69;4962551;28;20056;-76
2021/12/10 03:17:05;;;;;;;135.13;31.40;;;-1.00;99.90;;;-2.99;100.00;99373.94;4923893;28;20029;-76
2021/12/10 03:19:34;;;;;;;119.85;28.38;;;-1.10;99.90;;;-2.95;100.00;99370.44;4969107;28;20080;-76
2021/12/10 03:22:03;;;;;;;115.88;30.27;;;-1.10;99.90;;;-2.98;100.00;99366.19;4909342;28;20042;-76
2021/12/10 03:24:29;;;;;;;120.95;30.60;;;-1.00;99.90;;;-2.82;100.00;99368.56;4910568;28;20586;-77
2021/12/10 03:27:06;;;;;;;117.40;28.98;;;-1.00;99.90;;;-2.92;100.00;99358.34;4911545;28;22086;-77
2021/12/10 03:29:36;;;;;;;136.63;30.55;;;-1.00;99.90;;;-2.91;100.00;99361.81;4972023;28;20527;-76
2021/12/10 03:32:09;;;;;;;130.52;31.88;;;-1.00;99.90;;;-2.91;100.00;99356.66;4943637;28;20579;-77
2021/12/10 03:34:37;;;;;;;113.22;30.30;;;-1.00;99.90;;;-2.81;100.00;99362.50;4884247;28;20034;-76
2021/12/10 03:37:05;;;;;;;129.75;30.50;;;-1.00;99.90;;;-2.82;100.00;99361.66;4967411;28;20509;-75
2021/12/10 03:39:36;;;;;;;115.03;30.02;;;-0.90;99.90;;;-2.88;100.00;99351.44;4900716;28;20113;-76
2021/12/10 03:42:05;;;;;;;133.95;30.42;;;-1.00;99.90;;;-3.01;100.00;99337.88;4910126;28;20407;-77
2021/12/10 03:44:32;;;;;;;134.68;32.65;;;-1.00;99.90;;;-3.02;100.00;99332.75;4932463;28;20033;-76
2021/12/10 03:47:05;;;;;;;127.70;33.40;;;-1.10;99.90;;;-3.04;100.00;99330.22;4921936;28;20131;-76
2021/12/10 03:49:32;;;;;;;138.35;32.00;;;-1.10;99.90;;;-3.02;100.00;99340.47;4945615;28;20095;-76
2021/12/10 03:51:59;;;;;;;123.80;29.83;;;-1.10;99.90;;;-3.04;100.00;99339.66;4904668;28;20486;-76
2021/12/10 03:54:26;;;;;;;145.70;33.65;;;-1.10;99.90;;;-3.04;100.00;99329.38;4933131;28;20188;-76
2021/12/10 03:56:55;;;;;;;138.30;32.33;;;;;;;-3.03;100.00;99337.06;4963980;28;20103;-76
2021/12/10 03:59:23;;;;;;;112.72;30.17;;;-1.10;99.90;;;-3.00;100.00;99333.56;4933417;28;20026;-77
2021/12/10 04:02:04;;;;;;;130.13;32.55;;;-1.10;99.90;;;-3.06;100.00;99316.50;4953496;28;20029;-77
2021/12/10 04:04:46;;;;;;;133.40;31.77;;;-1.10;99.90;;;-3.08;100.00;99312.25;4913017;28;20569;-76
2021/12/10 04:07:24;;;;;;;130.05;29.95;;;-1.00;99.90;;;-2.89;100.00;99313.69;4958608;28;20034;-76
2021/12/10 04:09:52;;;;;;;126.68;31.33;;;-1.00;99.90;;;-2.98;100.00;99304.38;4931370;28;20046;-76
2021/12/10 04:12:20;;;;;;;131.52;31.38;;;-1.10;99.90;;;-3.08;100.00;99294.22;4929079;28;20072;-76
2021/12/10 04:14:49;;;;;;;128.93;32.05;;;-1.10;99.90;;;-3.12;100.00;99296.00;4902494;28;20031;-76
2021/12/10 04:17:19;;;;;;;141.20;32.92;;;-1.20;99.90;;;-3.13;100.00;99296.88;4963431;28;21576;-76
2021/12/10 04:19:46;;;;;;;133.43;32.40;;;-1.20;99.90;;;-3.19;100.00;99305.53;4918154;28;20037;-76
2021/12/10 04:22:17;;;;;;;112.13;29.98;;;-1.20;99.90;;;-3.15;100.00;99314.06;4966101;28;20117;-76
2021/12/10 04:24:43;;;;;;;137.20;31.17;;;-1.10;99.90;;;-3.12;100.00;99312.28;4949694;28;20037;-76
2021/12/10 04:27:14;;;;;;;138.27;32.00;;;-1.20;99.90;;;-3.10;100.00;99309.69;4909040;28;20030;-76
2021/12/10 04:29:49;;;;;;;143.77;34.22;;;-1.10;99.90;;;-3.15;100.00;99317.47;4958546;28;20054;-76
2021/12/10 04:32:15;;;;;;;154.98;35.67;;;-1.20;99.90;;;-3.18;100.00;99314.94;4912860;28;20506;-76
2021/12/10 04:34:46;;;;;;;142.70;34.30;;;-1.20;99.90;;;-3.16;100.00;99313.19;4938888;28;20421;-77
2021/12/10 04:37:12;;;;;;;137.90;30.45;;;-1.20;99.90;;;-3.18;100.00;99320.09;4940934;28;20047;-77
2021/12/10 04:39:45;;;;;;;125.85;29.73;;;-1.20;99.90;;;-3.10;100.00;99325.16;4891785;28;20042;-77
2021/12/10 04:42:22;;;;;;;141.45;33.65;;;-1.20;99.90;;;-3.20;100.00;99324.41;4945061;28;20034;-76
2021/12/10 04:44:56;;;;;;;134.95;31.83;;;-1.20;99.90;;;-3.20;100.00;99318.41;4933019;28;20052;-77
2021/12/10 04:47:24;;;;;;;135.25;30.10;;;-1.20;99.90;;;-3.16;100.00;99315.75;4902703;28;21240;-77
2021/12/10 04:49:50;;;;;;;142.65;28.58;;;-1.20;99.90;;;-3.13;100.00;99318.31;4955922;28;20033;-76
2021/12/10 04:52:16;;;;;;;139.05;30.73;;;-1.20;99.90;;;-3.14;100.00;99314.03;4895740;28;20070;-76
2021/12/10 04:54:45;;;;;;;145.13;35.92;;;-1.20;99.90;;;-3.22;100.00;99313.25;4929140;28;20049;-76
2021/12/10 04:57:12;;;;;;;131.60;31.08;;;-1.20;99.90;;;-3.18;100.00;99316.66;4917124;28;20041;-76
2021/12/10 04:59:39;;;;;;;136.25;32.00;;;-1.20;99.90;;;-3.19;100.00;99320.13;4970683;28;20041;-77
2021/12/10 05:02:14;;;;;;;130.30;30.33;;;-1.20;99.90;;;-3.22;100.00;99315.00;4960525;28;20608;-76
2021/12/10 05:04:43;;;;;;;121.20;28.38;;;-1.20;99.90;;;-3.14;100.00;99319.16;4992499;28;20451;-76
2021/12/10 05:07:11;;;;;;;143.10;31.17;;;-1.20;99.90;;;-3.20;100.00;99293.50;4962212;28;20091;-77
2021/12/10 05:09:47;;;;;;;127.15;29.00;;;-1.20;99.90;;;-3.21;100.00;99293.53;4965247;28;20034;-76
2021/12/10 05:12:13;;;;;;;;;;;-1.30;99.90;;;-3.28;100.00;99287.63;4933924;28;20168;-77
2021/12/10 05:14:39;;;;;;;103.70;25.83;;;-1.40;99.90;;;-3.32;100.00;99284.22;4963954;28;19916;-77
2021/12/10 05:17:08;;;;;;;113.90;28.92;;;-1.30;99.90;;;-3.31;100.00;99285.94;4904974;28;20092;-76
2021/12/10 05:19:38;;;;;;;130.40;30.55;;;-1.30;99.90;;;-3.28;100.00;99290.22;4918547;28;20565;-76
2021/12/10 05:22:08;;;;;;;113.18;30.75;;;-1.30;99.90;;;-3.30;100.00;99291.94;4931529;28;20398;-76
2021/12/10 05:24:35;;;;;;;121.63;28.02;;;-1.30;99.90;;;-3.33;100.00;99291.97;4924160;28;20119;-76
2021/12/10 05:27:04;;;;;;;123.97;30.08;;;-1.40;99.90;;;-3.34;100.00;99293.69;4932120;28;20085;-77
2021/12/10 05:29:31;;;;;;;123.40;32.42;;;-1.30;99.90;;;-3.41;100.00;99294.66;4984974;28;20457;-76
2021/12/10 05:31:59;;;;;;;133.77;29.52;;;-1.40;99.90;;;-3.43;100.00;99314.41;4970263;28;20105;-76
2021/12/10 05:34:26;;;;;;;127.22;31.25;;;-1.40;99.90;;;-3.41;100.00;99314.38;4913065;28;20030;-76
2021/12/10 05:36:57;;;;;;;128.02;29.35;;;-1.40;99.90;;;-3.37;100.00;99316.03;4911486;28;20021;-76
2021/12/10 05:39:24;;;;;;;118.53;30.88;;;-1.40;99.90;;;-3.38;100.00;99319.50;5008929;28;20603;-77
2021/12/10 05:41:54;;;;;;;143.07;33.10;;;-1.30;99.90;;;-3.34;100.00;99334.88;4927959;28;20109;-76
2021/12/10 05:44:26;;;;;;;189.27;47.35;;;-1.30;99.90;;;-3.26;100.00;99339.06;4926638;28;20030;-77
2021/12/10 05:46:52;;;;;;;215.10;50.10;;;-1.30;99.90;;;-3.22;100.00;99331.28;4946097;28;20034;-76
2021/12/10 05:49:18;;;;;;;193.05;47.20;;;-1.30;99.90;;;-3.24;100.00;99327.91;4914255;28;20038;-76
2021/12/10 05:51:44;;;;;;;181.10;43.67;;;-1.20;99.90;;;-3.24;100.00;99327.03;4905683;28;20086;-77
2021/12/10 05:54:15;;;;;;;146.50;35.38;;;-1.30;99.90;;;-3.36;100.00;99310.03;4954615;28;20026;-76
2021/12/10 05:56:41;;;;;;;135.45;33.08;;;-1.40;99.90;;;-3.35;100.00;99298.84;4916761;28;20101;-76
2021/12/10 05:59:08;;;;;;;132.77;33.55;;;-1.40;99.90;;;-3.36;100.00;99299.75;4935555;28;20605;-77
2021/12/10 06:01:35;;;;;;;142.88;32.55;;;-1.30;99.90;;;-3.34;100.00;99300.56;4930109;28;20108;-77
2021/12/10 06:04:02;;;;;;;141.57;32.75;;;-1.30;99.90;;;-3.31;100.00;99300.53;4951693;28;20514;-76
2021/12/10 06:06:33;;;;;;;129.57;32.45;;;;;;;-3.36;100.00;99286.88;4932045;28;20113;-77
2021/12/10 06:09:06;;;;;;;123.97;32.72;;;-1.30;99.90;;;-3.32;100.00;99280.81;4967735;28;20679;-76
2021/12/10 06:11:32;;;;;;;130.55;30.75;;;-1.30;99.90;;;-3.23;100.00;99282.41;4937067;28;20670;-76
2021/12/10 06:14:01;;;;;;;115.43;30.70;;;-1.30;99.90;;;-3.26;100.00;99272.16;4930470;28;20805;-76
2021/12/10 06:16:28;;;;;;;126.30;32.45;;;-1.30;99.90;;;-3.29;100.00;99267.88;4931144;28;20042;-76
2021/12/10 06:18:54;;;;;;;134.02;32.38;;;-1.30;99.90;;;-3.28;100.00;99267.03;4940767;28;20030;-76
2021/12/10 06:21:20;;;;;;;121.03;30.75;;;-1.30;99.90;;;-3.25;100.00;99272.13;4931625;28;20465;-77
2021/12/10 06:23:49;;;;;;;142.70;32.20;;;-1.20;99.90;;;-3.23;100.00;99257.50;4957163;28;20113;-78
2021/12/10 06:26:18;;;;;;;153.43;34.30;;;-1.20;99.90;;;-3.30;100.00;99253.34;4910486;28;20033;-77
2021/12/10 06:28:45;;;;;;;125.35;31.75;;;-1.30;99.90;;;-3.33;100.00;99261.09;4953147;28;20037;-76
2021/12/10 06:31:17;;;;;;;142.90;31.92;;;-1.30;99.90;;;-3.35;100.00;99263.69;4931352;28;20060;-76
2021/12/10 06:33:44;;;;;;;125.53;31.20;;;-1.30;99.90;;;-3.26;100.00;99267.00;4915551;28;20529;-76
2021/12/10 06:36:12;;;;;;;126.93;31.52;;;-1.30;99.90;;;-3.30;100.00;99266.22;4915792;28;20058;-76
2021/12/10 06:38:38;;;;;;;117.28;35.45;;;-1.30;99.90;;;-3.15;100.00;99281.44;4929570;28;20038;-76
2021/12/10 06:41:05;;;;;;;139.18;31.20;;;-1.30;99.90;;;-3.27;100.00;99275.59;4923904;22;20053;-76
2021/12/10 06:43:31;;;;;;;129.48;30.77;;;-1.30;99.90;;;-3.23;100.00;99261.81;4961549;28;20038;-76
2021/12/10 06:46:01;;;;;;;138.35;32.72;;;-1.30;99.90;;;-3.28;100.00;99245.56;4931420;28;20040;-77
2021/12/10 06:48:28;;;;;;;126.43;31.38;;;-1.30;99.90;;;-3.31;100.00;99243.91;4948571;28;20041;-76
2021/12/10 06:51:02;;;;;;;117.85;30.40;;;-1.30;99.90;;;-3.30;100.00;99243.03;4917612;28;20053;-76
2021/12/10 06:53:31;;;;;;;121.72;31.77;;;-1.30;99.90;;;-3.30;100.00;99240.47;4916342;28;20030;-77
2021/12/10 06:55:59;;;;;;;129.73;32.60;;;-1.30;99.90;;;-3.31;100.00;99239.59;4934920;28;20112;-77
2021/12/10 06:58:27;;;;;;;117.80;31.10;;;-1.30;99.90;;;-3.28;100.00;99240.41;4910647;28;20022;-77
2021/12/10 07:01:02;;;;;;;122.40;28.85;;;-1.20;99.90;;;-3.23;100.00;99246.38;4960916;28;20524;-77
2021/12/10 07:03:29;;;;;;;152.48;36.28;;;-1.20;99.90;;;-3.23;100.00;99248.94;4932111;28;20161;-76
2021/12/10 07:06:00;;;;;;;135.60;32.92;;;-1.30;99.90;;;-3.25;100.00;99233.50;4915031;28;20053;-77
2021/12/10 07:08:30;;;;;;;142.65;34.85;;;-1.20;99.90;;;-3.20;100.00;99239.44;4931096;28;20043;-77
2021/12/10 07:10:57;;;;;;;129.45;32.97;;;-1.20;99.90;;;-3.28;100.00;99246.44;4941307;28;20030;-76
2021/12/10 07:13:27;;;;;;;136.80;32.53;;;-1.30;99.90;;;-3.33;100.00;99240.50;4944705;28;20048;-76
2021/12/10 07:15:54;;;;;;;125.28;31.80;;;-1.30;99.90;;;-3.33;100.00;99238.75;4941450;28;20045;-76
2021/12/10 07:18:22;;;;;;;135.80;33.35;;;-1.30;99.90;;;-3.32;100.00;99244.78;4943032;28;20033;-76
2021/12/10 07:20:51;;;;;;;133.10;33.47;;;-1.30;99.90;;;-3.32;100.00;99244.78;4980494;28;20033;-76
2021/12/10 07:23:21;;;;;;;130.50;30.80;;;-1.20;99.90;;;-3.24;100.00;99248.09;4975782;28;20042;-77
2021/12/10 07:25:49;;;;;;;133.30;30.80;;;-1.30;99.90;;;-3.26;100.00;99247.28;4914419;28;20066;-76
2021/12/10 07:28:16;;;;;;;129.50;30.02;;;-1.20;99.90;;;-3.27;100.00;99250.69;4947650;28;20038;-76
2021/12/10 07:30:48;;;;;;;125.15;31.00;;;-1.20;99.90;;;-3.25;100.00;99251.53;4948813;28;20057;-76
2021/12/10 07:33:16;;;;;;;126.43;30.55;;;-1.20;99.90;;;-3.26;100.00;99254.13;4922141;28;20036;-76
2021/12/10 07:35:44;;;;;;;135.90;32.00;;;-1.30;99.90;;;-3.25;100.00;99255.84;4912088;28;20081;-77
2021/12/10 07:38:16;;;;;;;139.88;34.28;;;-1.20;99.90;;;-3.25;100.00;99259.25;4956385;28;20034;-77
2021/12/10 07:40:44;;;;;;;135.20;35.03;;;-1.30;99.90;;;-3.28;100.00;99254.16;4925059;22;20039;-77
2021/12/10 07:43:11;;;;;;;149.70;35.10;;;-1.30;99.90;;;-3.24;100.00;99257.53;4944573;28;20038;-76
2021/12/10 07:45:39;;;;;;;120.22;31.23;;;-1.30;99.90;;;-3.22;100.00;99254.06;4915018;28;20074;-76
2021/12/10 07:48:09;;;;;;;139.18;33.58;;;-1.20;99.90;;;-3.24;100.00;99249.81;4931946;28;20038;-76
2021/12/10 07:50:42;;;;;;;155.70;37.38;;;-1.30;99.90;;;-3.23;100.00;99252.38;4898386;28;20502;-76
2021/12/10 07:53:15;;;;;;;126.50;32.72;;;-1.30;99.90;;;-3.29;100.00;99247.31;4868916;28;20534;-76
2021/12/10 07:55:41;;;;;;;140.10;32.92;;;-1.20;99.90;;;-3.15;100.00;99249.69;4878559;28;20055;-77
2021/12/10 07:58:08;;;;;;;144.38;34.30;;;-1.20;99.90;;;-3.11;100.00;99254.78;4895764;28;20034;-76
2021/12/10 08:00:41;;;;;;;146.45;33.83;;;-1.10;99.90;;;-3.05;100.00;99258.13;4902390;28;20100;-76
2021/12/10 08:03:08;;;;;;;150.85;34.58;;;-1.20;99.90;;;-3.05;100.00;99247.81;4904289;28;20039;-76
2021/12/10 08:05:36;;;;;;;142.48;33.08;;;-1.10;99.90;;;-3.10;100.00;99242.75;4895819;28;20611;-76
2021/12/10 08:08:06;;;;;;;161.02;34.72;;;-1.20;99.90;;;-3.10;100.00;99232.44;4899621;28;20039;-76
2021/12/10 08:10:34;;;;;;;147.63;35.03;;;-1.10;99.90;;;-3.09;100.00;99218.69;4890145;28;20443;-76
2021/12/10 08:13:01;;;;;;;147.75;33.42;;;-1.10;99.90;;;-3.07;100.00;99216.09;4892993;28;20042;-76
2021/12/10 08:15:27;;;;;;;143.30;35.58;;;-1.00;99.90;;;-2.94;100.00;99213.31;4921973;28;20531;-76
2021/12/10 08:17:54;;;;;;;151.60;33.97;;;-1.00;99.90;;;-3.04;100.00;99216.91;4949194;28;20146;-76
2021/12/10 08:20:25;;;;;;;161.77;35.50;;;-1.00;99.90;;;-2.93;100.00;99214.16;4911464;28;20035;-76
2021/12/10 08:22:54;;;;;;;153.45;36.53;;;-1.10;99.90;;;-3.07;100.00;99200.63;4856208;28;20030;-76
2021/12/10 08:25:22;;;;;;;150.13;34.92;;;-1.10;99.90;;;-3.07;100.00;99200.63;4891464;28;20121;-76
2021/12/10 08:27:53;;;;;;;160.93;36.10;;;-1.10;99.90;;;-3.04;100.00;99198.88;4949088;28;20039;-76
2021/12/10 08:30:24;;;;;;;149.60;40.67;;;-1.00;99.90;;;-2.84;100.00;99201.13;4919702;28;20066;-76
2021/12/10 08:32:54;;;;;;;152.23;37.72;;;-0.90;99.90;;;-2.78;100.00;99195.88;4919678;28;20559;-76
2021/12/10 08:35:24;;;;;;;160.25;38.17;;;-0.90;99.90;;;-2.82;100.00;99189.06;4891708;28;20039;-76
2021/12/10 08:37:53;;;;;;;155.63;35.72;;;-0.90;99.90;;;-2.87;100.00;99178.00;4898268;28;20023;-75
2021/12/10 08:40:28;;;;;;;154.88;35.65;;;-0.90;99.90;;;-2.89;100.00;99172.03;4923499;28;20065;-75
2021/12/10 08:42:54;;;;;;;160.45;37.78;;;-0.90;99.90;;;-2.82;100.00;99171.03;4926979;28;20035;-76
2021/12/10 08:45:23;;;;;;;165.23;36.58;;;-0.90;99.90;;;-2.80;100.00;99153.00;4934037;28;20571;-75
2021/12/10 08:47:53;;;;;;;144.85;35.42;;;-0.90;99.90;;;-2.82;100.00;99147.84;4901198;28;20047;-76
2021/12/10 08:50:23;;;;;;;134.10;34.63;;;-0.90;99.90;;;-2.83;100.00;99143.59;4919221;28;20028;-76
2021/12/10 08:53:02;;;;;;;154.77;36.33;;;-0.90;99.90;;;-2.79;100.00;99139.22;4925846;28;20464;-76
2021/12/10 08:55:32;;;;;;;146.05;36.25;;;-0.80;99.90;;;-2.76;100.00;99136.59;4935408;28;20471;-76
2021/12/10 08:58:00;;;;;;;142.45;35.53;;;-0.80;99.90;;;-2.71;100.00;99133.03;4865896;28;20042;-75
2021/12/10 09:00:27;;;;;;;129.10;33.25;;;-0.80;99.90;;;-2.68;100.00;99134.72;4884822;28;20035;-76
2021/12/10 09:02:56;;;;;;;124.53;33.40;;;-0.80;99.90;;;-2.60;100.00;99126.84;4910707;28;20219;-76
2021/12/10 09:05:28;;;;;;;141.85;34.90;;;-0.70;99.90;;;-2.58;100.00;99128.53;4914116;28;20027;-74
2021/12/10 09:07:54;;;;;;;127.75;33.65;;;;;;;-2.58;100.00;99123.38;4910364;28;20035;-75
2021/12/10 09:10:28;;;;;;;149.52;38.42;;;-0.60;99.90;;;-2.50;100.00;99121.50;4946277;28;20043;-75
2021/12/10 09:12:57;;;;;;;146.43;35.00;;;-0.70;99.90;;;-2.55;100.00;99107.88;4901172;28;20277;-75
2021/12/10 09:15:28;;;;;;;135.05;33.05;;;-0.60;99.90;;;-2.55;100.00;99107.00;4919764;28;20032;-75
2021/12/10 09:18:04;;;;;;;129.80;32.85;;;-0.70;99.90;;;-2.61;100.00;99101.94;4941451;28;20087;-75
2021/12/10 09:20:38;;;;;;;126.93;34.05;;;-0.70;99.90;;;-2.66;100.00;99101.19;4915904;28;20039;-76
2021/12/10 09:23:10;;;;;;;146.88;33.78;;;-0.70;99.90;;;-2.61;100.00;99101.94;4907143;28;20040;-75
2021/12/10 09:25:43;;;;;;;144.98;31.95;;;-0.70;99.90;;;-2.53;100.00;99093.22;4926484;28;20024;-74
2021/12/10 09:28:12;;;;;;;115.35;30.98;;;-0.60;99.90;;;-2.47;100.00;99094.81;4939718;28;20046;-75
2021/12/10 09:30:49;;;;;;;124.35;32.13;;;-0.50;99.90;;;-2.48;100.00;99081.09;4941618;28;20448;-74
2021/12/10 09:33:17;;;;;;;139.25;32.40;;;-0.60;99.90;;;-2.43;100.00;99080.13;4902699;28;20035;-76
2021/12/10 09:35:47;;;;;;;135.23;33.65;;;-0.60;99.90;;;-2.45;100.00;99087.06;4926802;28;20035;-75
2021/12/10 09:38:19;;;;;;;121.60;32.35;;;-0.60;99.90;;;-2.41;100.00;99080.97;4921232;28;20035;-74
2021/12/10 09:40:52;;;;;;;134.77;31.63;;;-0.60;99.90;;;-2.36;100.00;99082.53;4910180;28;20399;-75
2021/12/10 09:43:22;;;;;;;115.75;31.00;;;-0.50;99.90;;;-2.33;100.00;99087.66;4855372;28;20047;-76
2021/12/10 09:45:53;;;;;;;118.72;33.42;;;-0.50;99.90;;;-2.39;100.00;99067.16;4892440;28;20039;-75
2021/12/10 09:48:24;;;;;;;135.45;33.20;;;-0.50;99.90;;;-2.28;100.00;99074.66;4934206;28;20064;-74
2021/12/10 09:51:07;;;;;;;123.10;32.67;;;-0.40;99.90;;;-2.24;100.00;99065.16;4938394;28;20106;-74
2021/12/10 09:53:36;;;;;;;126.60;31.50;;;-0.30;99.90;;;-2.22;100.00;99064.22;4940742;28;20039;-74
2021/12/10 09:56:11;;;;;;;134.05;34.33;;;-0.40;99.90;;;-2.39;100.00;99062.00;4940376;28;20031;-74
2021/12/10 09:58:44;;;;;;;118.80;31.10;;;-0.40;99.90;;;-2.23;100.00;99056.53;4925166;28;20027;-74
2021/12/10 10:01:42;;;;;;;127.97;30.55;;;-0.30;99.90;;;-2.18;100.00;99044.38;4924220;28;20034;-74
2021/12/10 10:04:15;;;;;;;127.95;32.17;;;-0.30;99.90;;;-2.15;100.00;99039.16;4918131;28;20036;-74
2021/12/10 10:06:56;;;;;;;134.52;33.90;;;-0.30;99.90;;;-2.21;100.00;99045.28;4935921;28;20071;-74
2021/12/10 10:09:30;;;;;;;116.75;31.90;;;-0.40;99.90;;;-2.28;100.00;99044.56;4916513;28;20047;-74
2021/12/10 10:12:08;;;;;;;129.15;31.85;;;-0.30;99.90;;;-2.17;100.00;99046.06;4926738;28;20039;-74
2021/12/10 10:14:44;;;;;;;112.05;30.25;;;-0.30;99.90;;;-2.13;100.00;99037.41;4949594;28;20051;-74
2021/12/10 10:17:17;;;;;;;114.72;30.08;;;-0.40;99.90;;;-2.29;100.00;99037.72;4924925;28;20661;-73
2021/12/10 10:19:47;;;;;;;127.55;33.05;;;-0.30;99.90;;;-2.33;100.00;99028.38;4947748;28;20118;-74